createdAt,value
2018-12-17T00:04:09.112Z,100337.34
2018-12-17T00:09:23.257Z,100346.84
2018-12-17T00:14:25.306Z,100350.77
2018-12-17T00:19:27.601Z,100346.34
2018-12-17T00:24:29.745Z,100354.75
2018-12-17T00:29:31.814Z,100347.45
2018-12-17T00:34:33.990Z,100356.92
2018-12-17T00:39:36.170Z,100358.33
2018-12-17T00:44:38.213Z,100353.64
2018-12-17T00:49:40.293Z,100358.33
2018-12-17T00:54:42.345Z,100365.98
2018-12-17T00:59:44.420Z,100389.70
2018-12-17T01:04:46.594Z,100386.05
2018-12-17T01:09:48.642Z,100390.50
2018-12-17T01:14:50.726Z,100390.63
2018-12-17T01:19:52.991Z,100403.25
2018-12-17T01:24:55.181Z,100417.71
2018-12-17T01:29:57.241Z,100410.67
2018-12-17T01:34:59.508Z,100411.94
2018-12-17T01:40:01.834Z,100422.05
2018-12-17T01:45:04.434Z,100429.09
2018-12-17T01:50:06.830Z,100428.33
2018-12-17T01:55:09.005Z,100416.42
2018-12-17T02:00:11.258Z,100414.23
2018-12-17T02:05:13.412Z,100421.36
2018-12-17T02:10:15.802Z,100416.48
2018-12-17T02:15:18.979Z,100429.66
2018-12-17T02:20:21.085Z,100431.52
2018-12-17T02:25:23.357Z,100429.36
2018-12-17T02:30:25.645Z,100425.69
2018-12-17T02:35:27.917Z,100434.92
2018-12-17T02:40:30.077Z,100447.97
2018-12-17T02:45:32.266Z,100444.82
2018-12-17T02:50:34.436Z,100440.94
2018-12-17T02:55:36.698Z,100442.89
2018-12-17T03:00:38.765Z,100441.78
2018-12-17T03:05:41.305Z,100452.22
2018-12-17T03:10:43.482Z,100443.65
2018-12-17T03:15:45.767Z,100441.76
2018-12-17T03:20:48.064Z,100444.66
2018-12-17T03:25:51.110Z,100451.23
2018-12-17T03:30:53.288Z,100456.41
2018-12-17T03:35:55.956Z,100454.72
2018-12-17T03:40:58.269Z,100466.98
2018-12-17T03:46:00.306Z,100466.42
2018-12-17T03:51:06.485Z,100474.66
2018-12-17T03:56:08.758Z,100469.20
2018-12-17T04:01:10.909Z,100491.42
2018-12-17T04:06:13.298Z,100508.37
2018-12-17T04:11:15.366Z,100511.54
2018-12-17T04:16:17.555Z,100505.73
2018-12-17T04:21:19.618Z,100509.10
2018-12-17T04:26:21.710Z,100510.19
2018-12-17T04:31:23.862Z,100514.36
2018-12-17T04:36:26.253Z,100530.19
2018-12-17T04:41:28.482Z,100534.92
2018-12-17T04:46:30.926Z,100532.07
2018-12-17T04:51:33.014Z,100530.18
2018-12-17T04:56:35.183Z,100540.61
2018-12-17T05:01:37.465Z,100543.45
2018-12-17T05:06:39.559Z,100547.70
2018-12-17T05:11:41.879Z,100560.57
2018-12-17T05:16:44.034Z,100565.70
2018-12-17T05:21:47.150Z,100575.41
2018-12-17T05:26:49.499Z,100586.39
2018-12-17T05:31:51.563Z,100595.62
2018-12-17T05:36:53.735Z,100589.53
2018-12-17T05:41:55.944Z,100589.33
2018-12-17T05:46:57.990Z,100602.11
2018-12-17T05:52:00.374Z,100599.41
2018-12-17T05:57:02.534Z,100608.35
2018-12-17T06:02:04.830Z,100624.59
2018-12-17T06:07:07.121Z,100631.83
2018-12-17T06:12:09.259Z,100629.34
2018-12-17T06:17:11.485Z,100634.72
2018-12-17T06:22:13.666Z,100639.42
2018-12-17T06:27:15.828Z,100638.45
2018-12-17T06:32:18.130Z,100642.34
2018-12-17T06:37:20.285Z,100645.58
2018-12-17T06:42:22.901Z,100653.80
2018-12-17T06:47:24.955Z,100658.80
2018-12-17T06:52:27.006Z,100668.95
2018-12-17T06:57:29.310Z,100678.66
2018-12-17T07:02:31.482Z,100683.09
2018-12-17T07:07:33.674Z,100692.41
2018-12-17T07:12:35.934Z,100701.79
2018-12-17T07:17:38.141Z,100702.44
2018-12-17T07:22:40.186Z,100706.61
2018-12-17T07:27:42.366Z,100716.63
2018-12-17T07:32:44.594Z,100721.22
2018-12-17T07:37:46.762Z,100719.30
2018-12-17T07:42:53.874Z,100714.87
2018-12-17T07:47:55.961Z,100721.30
2018-12-17T07:52:58.166Z,100715.97
2018-12-17T07:58:00.234Z,100719.09
2018-12-17T08:03:02.446Z,100736.76
2018-12-17T08:08:04.652Z,100734.23
2018-12-17T08:13:07.262Z,100742.55
2018-12-17T08:18:20.082Z,100741.13
2018-12-17T08:23:22.166Z,100736.33
2018-12-17T08:28:24.311Z,100750.25
2018-12-17T08:33:26.479Z,100760.36
2018-12-17T08:38:28.546Z,100754.70
2018-12-17T08:43:30.751Z,100769.77
2018-12-17T08:48:33.059Z,100770.28
2018-12-17T08:53:35.110Z,100781.88
2018-12-17T08:58:37.202Z,100790.22
2018-12-17T09:03:39.262Z,100785.56
2018-12-17T09:08:41.356Z,100791.48
2018-12-17T09:13:43.578Z,100788.53
2018-12-17T09:18:45.858Z,100800.09
2018-12-17T09:23:48.027Z,100797.43
2018-12-17T09:28:50.262Z,100799.36
2018-12-17T09:33:52.311Z,100815.81
2018-12-17T09:38:54.581Z,100812.55
2018-12-17T09:43:57.120Z,100819.00
2018-12-17T09:48:59.398Z,100814.09
2018-12-17T09:54:01.578Z,100818.34
2018-12-17T09:59:03.872Z,100815.69
2018-12-17T10:04:06.018Z,100810.97
2018-12-17T10:09:08.073Z,100814.20
2018-12-17T10:14:12.287Z,100802.77
2018-12-17T10:19:14.337Z,100809.54
2018-12-17T10:24:16.530Z,100810.80
2018-12-17T10:29:18.618Z,100817.61
2018-12-17T10:34:20.807Z,100820.34
2018-12-17T10:39:23.201Z,100828.58
2018-12-17T10:44:32.220Z,100822.46
2018-12-17T10:49:34.305Z,100823.48
2018-12-17T10:54:36.486Z,100821.34
2018-12-17T10:59:38.554Z,100817.94
2018-12-17T11:04:46.417Z,100812.08
2018-12-17T11:09:48.682Z,100813.77
2018-12-17T11:14:50.950Z,100812.74
2018-12-17T11:19:53.100Z,100819.03
2018-12-17T11:24:55.198Z,100810.79
2018-12-17T11:29:57.429Z,100814.30
2018-12-17T11:34:59.616Z,100814.64
2018-12-17T11:40:01.917Z,100819.97
2018-12-17T11:45:04.325Z,100808.94
2018-12-17T11:50:07.311Z,100802.96
2018-12-17T11:55:09.697Z,100802.10
2018-12-17T12:00:12.109Z,100799.16
2018-12-17T12:05:14.271Z,100800.64
2018-12-17T12:10:16.438Z,100802.94
2018-12-17T12:15:18.746Z,100806.47
2018-12-17T12:20:21.001Z,100815.66
2018-12-17T12:25:24.106Z,100819.41
2018-12-17T12:30:26.265Z,100818.47
2018-12-17T12:35:28.635Z,100812.66
2018-12-17T12:40:30.911Z,100813.88
2018-12-17T12:45:33.326Z,100815.23
2018-12-17T12:50:35.477Z,100824.08
2018-12-17T12:55:37.601Z,100817.11
2018-12-17T13:00:39.695Z,100807.19
2018-12-17T13:05:41.762Z,100821.41
2018-12-17T13:10:43.985Z,100821.37
2018-12-17T13:15:46.045Z,100818.23
2018-12-17T13:20:48.093Z,100821.16
2018-12-17T13:25:50.594Z,100828.31
2018-12-17T13:30:52.981Z,100825.16
2018-12-17T13:35:56.030Z,100827.75
2018-12-17T13:40:58.254Z,100836.23
2018-12-17T13:46:00.595Z,100849.16
2018-12-17T13:51:08.711Z,100850.98
2018-12-17T13:56:10.778Z,100854.39
2018-12-17T14:01:12.842Z,100853.44
2018-12-17T14:06:15.077Z,100860.10
2018-12-17T14:11:17.486Z,100859.61
2018-12-17T14:16:24.325Z,100865.78
2018-12-17T14:21:32.237Z,100865.78
2018-12-17T14:26:34.554Z,100864.15
2018-12-17T14:31:36.745Z,100867.87
2018-12-17T14:36:39.272Z,100877.01
2018-12-17T14:41:41.394Z,100891.25
2018-12-17T14:46:49.322Z,100889.23
2018-12-17T14:51:51.574Z,100893.31
2018-12-17T14:56:53.667Z,100903.17
2018-12-17T15:01:55.758Z,100907.66
2018-12-17T15:06:57.934Z,100919.27
2018-12-17T15:12:00.124Z,100920.60
2018-12-17T15:17:02.189Z,100923.53
2018-12-17T15:22:04.374Z,100928.35
2018-12-17T15:27:06.671Z,100929.16
2018-12-17T15:32:08.822Z,100933.16
2018-12-17T15:37:11.026Z,100937.36
2018-12-17T15:42:13.207Z,100939.28
2018-12-17T15:47:15.261Z,100942.46
2018-12-17T15:52:17.317Z,100952.11
2018-12-17T15:57:26.171Z,100952.36
2018-12-17T16:02:28.251Z,100958.80
2018-12-17T16:07:30.454Z,100975.68
2018-12-17T16:12:32.658Z,100973.84
2018-12-17T16:17:34.839Z,100984.20
2018-12-17T16:22:37.742Z,100987.72
2018-12-17T16:27:43.426Z,100989.85
2018-12-17T16:32:45.681Z,101000.37
2018-12-17T16:37:47.841Z,101008.36
2018-12-17T16:42:49.977Z,101011.59
2018-12-17T16:47:52.261Z,101016.63
2018-12-17T16:52:54.412Z,101019.50
2018-12-17T16:57:56.749Z,101023.31
2018-12-17T17:03:05.921Z,101028.62
2018-12-17T17:08:08.107Z,101028.61
2018-12-17T17:13:10.360Z,101033.35
2018-12-17T17:18:12.638Z,101032.41
2018-12-17T17:23:14.679Z,101050.69
2018-12-17T17:28:16.850Z,101050.07
2018-12-17T17:33:18.937Z,101051.41
2018-12-17T17:38:21.014Z,101053.84
2018-12-17T17:43:23.177Z,101056.63
2018-12-17T17:48:32.198Z,101060.80
2018-12-17T17:53:34.397Z,101067.58
2018-12-17T17:58:36.922Z,101065.46
2018-12-17T18:03:45.901Z,101074.64
2018-12-17T18:08:54.966Z,101080.19
2018-12-17T18:13:57.134Z,101090.18
2018-12-17T18:18:59.281Z,101095.73
2018-12-17T18:24:01.546Z,101108.95
2018-12-17T18:29:03.879Z,101107.25
2018-12-17T18:34:06.021Z,101111.91
2018-12-17T18:39:08.393Z,101122.42
2018-12-17T18:44:12.569Z,101132.93
2018-12-17T18:49:15.713Z,101141.19
2018-12-17T18:54:17.973Z,101139.51
2018-12-17T18:59:20.141Z,101133.80
2018-12-17T19:04:22.173Z,101134.02
2018-12-17T19:09:24.473Z,101152.82
2018-12-17T19:14:26.792Z,101153.11
2018-12-17T19:19:28.951Z,101150.88
2018-12-17T19:24:31.114Z,101153.47
2018-12-17T19:29:33.801Z,101160.52
2018-12-17T19:34:35.850Z,101174.90
2018-12-17T19:39:37.903Z,101182.73
2018-12-17T19:44:40.015Z,101182.09
2018-12-17T19:49:42.042Z,101177.27
2018-12-17T19:54:44.183Z,101180.50
2018-12-17T19:59:46.298Z,101182.10
2018-12-17T20:04:48.438Z,101186.45
2018-12-17T20:09:51.477Z,101197.43
2018-12-17T20:14:53.655Z,101200.09
2018-12-17T20:19:56.081Z,101194.86
2018-12-17T20:25:01.174Z,101193.92
2018-12-17T20:30:03.898Z,101192.59
2018-12-17T20:35:07.189Z,101196.67
2018-12-17T20:40:09.327Z,101198.02
2018-12-17T20:45:11.538Z,101196.69
2018-12-17T20:50:13.782Z,101198.21
2018-12-17T20:55:15.817Z,101208.73
2018-12-17T21:00:17.931Z,101222.59
2018-12-17T21:05:20.189Z,101218.89
2018-12-17T21:10:22.241Z,101225.94
2018-12-17T21:15:24.369Z,101230.66
2018-12-17T21:20:26.627Z,101231.19
2018-12-17T21:25:28.691Z,101233.05
2018-12-17T21:30:30.903Z,101234.83
2018-12-17T21:35:32.942Z,101228.00
2018-12-17T21:40:35.008Z,101231.48
2018-12-17T21:45:37.190Z,101231.69
2018-12-17T21:50:39.336Z,101232.32
2018-12-17T21:55:41.604Z,101231.11
2018-12-17T22:00:43.670Z,101245.14
2018-12-17T22:05:45.766Z,101246.45
2018-12-17T22:10:47.941Z,101249.40
2018-12-17T22:15:50.009Z,101261.69
2018-12-17T22:20:52.157Z,101266.70
2018-12-17T22:25:54.294Z,101254.73
2018-12-17T22:30:56.383Z,101251.28
2018-12-17T22:35:58.422Z,101251.73
2018-12-17T22:41:00.709Z,101260.84
2018-12-17T22:46:02.997Z,101265.05
2018-12-17T22:51:05.274Z,101268.14
2018-12-17T22:56:07.437Z,101256.55
2018-12-17T23:01:09.858Z,101262.52
2018-12-17T23:06:13.813Z,101269.05
2018-12-17T23:11:27.655Z,101275.82
2018-12-17T23:16:41.621Z,101271.55
2018-12-17T23:21:43.662Z,101271.41
2018-12-17T23:26:47.723Z,101277.39
2018-12-17T23:31:52.753Z,101271.41
2018-12-17T23:36:55.018Z,101267.16
2018-12-17T23:41:57.193Z,101276.03
2018-12-17T23:46:59.490Z,101272.13
2018-12-17T23:52:01.757Z,101277.45
2018-12-17T23:57:04.022Z,101281.98
